sensor_id;sensor_type;location;lat;lon;timestamp;temperature;humidity
14277;DHT22;7222;57.346;12.150;2023-04-21T00:02:01;8.70;99.90
14277;DHT22;7222;57.346;12.150;2023-04-21T00:04:29;8.60;99.90
14277;DHT22;7222;57.346;12.150;2023-04-21T00:06:57;8.70;99.90
14277;DHT22;7222;57.346;12.150;2023-04-21T00:09:27;8.70;99.90
14277;DHT22;7222;57.346;12.150;2023-04-21T00:11:54;8.60;99.90
14277;DHT22;7222;57.346;12.150;2023-04-21T00:14:21;8.60;99.90
14277;DHT22;7222;57.346;12.150;2023-04-21T00:16:47;8.50;99.90
14277;DHT22;7222;57.346;12.150;2023-04-21T00:19:17;8.50;99.90
14277;DHT22;7222;57.346;12.150;2023-04-21T00:21:44;8.40;99.90
14277;DHT22;7222;57.346;12.150;2023-04-21T00:24:11;8.40;99.90
14277;DHT22;7222;57.346;12.150;2023-04-21T00:26:40;8.40;99.90
14277;DHT22;7222;57.346;12.150;2023-04-21T00:29:07;8.30;99.90
14277;DHT22;7222;57.346;12.150;2023-04-21T00:31:33;8.20;99.90
14277;DHT22;7222;57.346;12.150;2023-04-21T00:34:00;8.20;99.90
14277;DHT22;7222;57.346;12.150;2023-04-21T00:36:27;8.20;99.90
14277;DHT22;7222;57.346;12.150;2023-04-21T00:38:54;8.10;99.90
14277;DHT22;7222;57.346;12.150;2023-04-21T00:41:21;8.10;99.90
14277;DHT22;7222;57.346;12.150;2023-04-21T00:44:02;8.00;99.90
14277;DHT22;7222;57.346;12.150;2023-04-21T00:46:30;8.00;99.90
14277;DHT22;7222;57.346;12.150;2023-04-21T00:48:56;8.00;99.90
14277;DHT22;7222;57.346;12.150;2023-04-21T00:51:24;8.00;99.90
14277;DHT22;7222;57.346;12.150;2023-04-21T00:53:52;7.90;99.90
14277;DHT22;7222;57.346;12.150;2023-04-21T00:56:21;7.90;99.90
14277;DHT22;7222;57.346;12.150;2023-04-21T00:58:48;7.80;99.90
14277;DHT22;7222;57.346;12.150;2023-04-21T01:01:16;7.80;99.90
14277;DHT22;7222;57.346;12.150;2023-04-21T01:03:43;7.70;99.90
14277;DHT22;7222;57.346;12.150;2023-04-21T01:06:10;7.70;99.90
14277;DHT22;7222;57.346;12.150;2023-04-21T01:08:38;7.70;99.90
14277;DHT22;7222;57.346;12.150;2023-04-21T01:11:10;7.60;99.90
14277;DHT22;7222;57.346;12.150;2023-04-21T01:13:38;7.50;99.90
14277;DHT22;7222;57.346;12.150;2023-04-21T01:16:06;7.50;99.90
14277;DHT22;7222;57.346;12.150;2023-04-21T01:18:35;7.40;99.90
14277;DHT22;7222;57.346;12.150;2023-04-21T01:21:02;7.40;99.90
14277;DHT22;7222;57.346;12.150;2023-04-21T01:23:31;7.40;99.90
14277;DHT22;7222;57.346;12.150;2023-04-21T01:25:58;7.30;99.90
14277;DHT22;7222;57.346;12.150;2023-04-21T01:28:25;7.30;99.90
14277;DHT22;7222;57.346;12.150;2023-04-21T01:30:52;7.20;99.90
14277;DHT22;7222;57.346;12.150;2023-04-21T01:33:20;7.20;99.90
14277;DHT22;7222;57.346;12.150;2023-04-21T01:35:47;7.10;99.90
14277;DHT22;7222;57.346;12.150;2023-04-21T01:38:14;7.10;99.90
14277;DHT22;7222;57.346;12.150;2023-04-21T01:40:46;7.10;99.90
14277;DHT22;7222;57.346;12.150;2023-04-21T01:43:17;7.00;99.90
14277;DHT22;7222;57.346;12.150;2023-04-21T01:45:44;7.00;99.90
14277;DHT22;7222;57.346;12.150;2023-04-21T01:48:12;6.90;99.90
14277;DHT22;7222;57.346;12.150;2023-04-21T01:50:39;6.90;99.90
14277;DHT22;7222;57.346;12.150;2023-04-21T01:53:06;6.80;99.90
14277;DHT22;7222;57.346;12.150;2023-04-21T01:55:33;6.80;99.90
14277;DHT22;7222;57.346;12.150;2023-04-21T01:58:02;6.60;99.90
14277;DHT22;7222;57.346;12.150;2023-04-21T02:00:29;6.50;99.90
14277;DHT22;7222;57.346;12.150;2023-04-21T02:02:56;6.50;99.90
14277;DHT22;7222;57.346;12.150;2023-04-21T02:05:23;6.50;99.90
14277;DHT22;7222;57.346;12.150;2023-04-21T02:07:51;6.50;99.90
14277;DHT22;7222;57.346;12.150;2023-04-21T02:10:17;6.50;99.90
14277;DHT22;7222;57.346;12.150;2023-04-21T02:12:44;6.40;99.90
14277;DHT22;7222;57.346;12.150;2023-04-21T02:15:13;6.40;99.90
14277;DHT22;7222;57.346;12.150;2023-04-21T02:17:39;6.30;99.90
14277;DHT22;7222;57.346;12.150;2023-04-21T02:20:08;6.30;99.90
14277;DHT22;7222;57.346;12.150;2023-04-21T02:22:36;6.20;99.90
14277;DHT22;7222;57.346;12.150;2023-04-21T02:25:04;6.10;99.90
14277;DHT22;7222;57.346;12.150;2023-04-21T02:27:32;6.10;99.90
14277;DHT22;7222;57.346;12.150;2023-04-21T02:29:58;6.00;99.90
14277;DHT22;7222;57.346;12.150;2023-04-21T02:32:27;6.00;99.90
14277;DHT22;7222;57.346;12.150;2023-04-21T02:34:54;5.90;99.90
14277;DHT22;7222;57.346;12.150;2023-04-21T02:37:21;5.90;99.90
14277;DHT22;7222;57.346;12.150;2023-04-21T02:39:48;5.80;99.90
14277;DHT22;7222;57.346;12.150;2023-04-21T02:42:15;5.80;99.90
14277;DHT22;7222;57.346;12.150;2023-04-21T02:44:42;5.70;99.90
14277;DHT22;7222;57.346;12.150;2023-04-21T02:47:09;5.60;99.90
14277;DHT22;7222;57.346;12.150;2023-04-21T02:49:40;5.50;1.00
14277;DHT22;7222;57.346;12.150;2023-04-21T02:52:07;5.50;1.00
14277;DHT22;7222;57.346;12.150;2023-04-21T02:54:34;5.50;1.00
14277;DHT22;7222;57.346;12.150;2023-04-21T02:57:01;5.50;1.00
14277;DHT22;7222;57.346;12.150;2023-04-21T02:59:28;5.50;1.00
14277;DHT22;7222;57.346;12.150;2023-04-21T03:01:55;5.50;1.00
14277;DHT22;7222;57.346;12.150;2023-04-21T03:04:22;5.50;1.00
14277;DHT22;7222;57.346;12.150;2023-04-21T03:06:51;5.50;1.00
14277;DHT22;7222;57.346;12.150;2023-04-21T03:09:18;5.50;1.00
14277;DHT22;7222;57.346;12.150;2023-04-21T03:11:45;5.40;1.00
14277;DHT22;7222;57.346;12.150;2023-04-21T03:14:12;5.50;1.00
14277;DHT22;7222;57.346;12.150;2023-04-21T03:16:39;5.40;1.00
14277;DHT22;7222;57.346;12.150;2023-04-21T03:19:06;5.40;1.00
14277;DHT22;7222;57.346;12.150;2023-04-21T03:21:35;5.40;1.00
14277;DHT22;7222;57.346;12.150;2023-04-21T03:24:06;5.40;1.00
14277;DHT22;7222;57.346;12.150;2023-04-21T03:26:33;5.50;1.00
14277;DHT22;7222;57.346;12.150;2023-04-21T03:29:01;5.50;1.00
14277;DHT22;7222;57.346;12.150;2023-04-21T03:31:27;5.50;1.00
14277;DHT22;7222;57.346;12.150;2023-04-21T03:33:54;5.50;1.00
14277;DHT22;7222;57.346;12.150;2023-04-21T03:36:21;5.50;1.00
14277;DHT22;7222;57.346;12.150;2023-04-21T03:38:48;5.50;1.00
14277;DHT22;7222;57.346;12.150;2023-04-21T03:41:17;5.50;1.00
14277;DHT22;7222;57.346;12.150;2023-04-21T03:43:43;5.40;1.00
14277;DHT22;7222;57.346;12.150;2023-04-21T03:46:17;5.30;1.00
14277;DHT22;7222;57.346;12.150;2023-04-21T03:48:44;5.30;1.00
14277;DHT22;7222;57.346;12.150;2023-04-21T03:51:11;5.20;1.00
14277;DHT22;7222;57.346;12.150;2023-04-21T03:53:38;5.20;1.00
14277;DHT22;7222;57.346;12.150;2023-04-21T03:56:06;5.10;1.00
14277;DHT22;7222;57.346;12.150;2023-04-21T03:58:35;5.10;1.00
14277;DHT22;7222;57.346;12.150;2023-04-21T04:01:04;5.00;1.00
14277;DHT22;7222;57.346;12.150;2023-04-21T04:03:31;5.00;1.00
14277;DHT22;7222;57.346;12.150;2023-04-21T04:05:57;5.00;1.00
14277;DHT22;7222;57.346;12.150;2023-04-21T04:08:24;4.90;1.00
14277;DHT22;7222;57.346;12.150;2023-04-21T04:10:51;4.90;1.00
14277;DHT22;7222;57.346;12.150;2023-04-21T04:13:18;4.90;1.00
14277;DHT22;7222;57.346;12.150;2023-04-21T04:15:48;4.90;1.00
14277;DHT22;7222;57.346;12.150;2023-04-21T04:18:15;4.90;1.00
14277;DHT22;7222;57.346;12.150;2023-04-21T04:20:41;4.80;1.00
14277;DHT22;7222;57.346;12.150;2023-04-21T04:23:08;4.80;1.00
14277;DHT22;7222;57.346;12.150;2023-04-21T04:25:35;4.70;1.00
14277;DHT22;7222;57.346;12.150;2023-04-21T04:28:03;4.80;1.00
14277;DHT22;7222;57.346;12.150;2023-04-21T04:30:31;4.70;1.00
14277;DHT22;7222;57.346;12.150;2023-04-21T04:33:01;4.70;1.00
14277;DHT22;7222;57.346;12.150;2023-04-21T04:35:28;4.70;1.00
14277;DHT22;7222;57.346;12.150;2023-04-21T04:37:55;4.70;1.00
14277;DHT22;7222;57.346;12.150;2023-04-21T04:40:23;4.60;1.00
14277;DHT22;7222;57.346;12.150;2023-04-21T04:42:50;4.60;1.00
14277;DHT22;7222;57.346;12.150;2023-04-21T04:45:17;4.60;1.00
14277;DHT22;7222;57.346;12.150;2023-04-21T04:47:45;4.60;1.00
14277;DHT22;7222;57.346;12.150;2023-04-21T04:50:14;4.60;1.00
14277;DHT22;7222;57.346;12.150;2023-04-21T04:52:40;4.60;1.00
14277;DHT22;7222;57.346;12.150;2023-04-21T04:55:11;4.60;1.00
14277;DHT22;7222;57.346;12.150;2023-04-21T04:57:39;4.60;1.00
14277;DHT22;7222;57.346;12.150;2023-04-21T05:00:07;4.70;1.00
14277;DHT22;7222;57.346;12.150;2023-04-21T05:02:36;4.80;1.00
14277;DHT22;7222;57.346;12.150;2023-04-21T05:05:04;4.80;1.00
14277;DHT22;7222;57.346;12.150;2023-04-21T05:07:33;4.90;1.00
14277;DHT22;7222;57.346;12.150;2023-04-21T05:10:01;5.00;1.00
14277;DHT22;7222;57.346;12.150;2023-04-21T05:12:29;5.20;1.00
14277;DHT22;7222;57.346;12.150;2023-04-21T05:14:56;5.40;38.50
14277;DHT22;7222;57.346;12.150;2023-04-21T05:17:23;5.50;53.10
14277;DHT22;7222;57.346;12.150;2023-04-21T05:19:50;5.60;27.70
14277;DHT22;7222;57.346;12.150;2023-04-21T05:22:17;5.90;26.70
14277;DHT22;7222;57.346;12.150;2023-04-21T05:24:45;5.90;98.90
14277;DHT22;7222;57.346;12.150;2023-04-21T05:27:12;6.00;45.90
14277;DHT22;7222;57.346;12.150;2023-04-21T05:29:39;6.10;1.00
14277;DHT22;7222;57.346;12.150;2023-04-21T05:32:06;6.30;1.00
14277;DHT22;7222;57.346;12.150;2023-04-21T05:34:33;6.50;1.00
14277;DHT22;7222;57.346;12.150;2023-04-21T05:37:00;6.60;1.00
14277;DHT22;7222;57.346;12.150;2023-04-21T05:39:27;6.70;1.00
14277;DHT22;7222;57.346;12.150;2023-04-21T05:41:55;6.70;1.00
14277;DHT22;7222;57.346;12.150;2023-04-21T05:44:22;6.90;1.00
14277;DHT22;7222;57.346;12.150;2023-04-21T05:46:50;7.00;1.00
14277;DHT22;7222;57.346;12.150;2023-04-21T05:49:17;7.20;1.00
14277;DHT22;7222;57.346;12.150;2023-04-21T05:51:44;7.30;1.00
14277;DHT22;7222;57.346;12.150;2023-04-21T05:54:11;7.40;1.00
14277;DHT22;7222;57.346;12.150;2023-04-21T05:56:37;7.50;1.00
14277;DHT22;7222;57.346;12.150;2023-04-21T05:59:06;7.60;1.00
14277;DHT22;7222;57.346;12.150;2023-04-21T06:01:33;7.70;1.00
14277;DHT22;7222;57.346;12.150;2023-04-21T06:04:00;8.00;1.00
14277;DHT22;7222;57.346;12.150;2023-04-21T06:06:27;8.20;1.00
14277;DHT22;7222;57.346;12.150;2023-04-21T06:08:54;8.30;1.00
14277;DHT22;7222;57.346;12.150;2023-04-21T06:11:21;8.40;1.00
14277;DHT22;7222;57.346;12.150;2023-04-21T06:13:48;8.60;1.00
14277;DHT22;7222;57.346;12.150;2023-04-21T06:16:19;8.80;1.00
14277;DHT22;7222;57.346;12.150;2023-04-21T06:18:46;8.90;1.00
14277;DHT22;7222;57.346;12.150;2023-04-21T06:21:13;8.90;1.00
14277;DHT22;7222;57.346;12.150;2023-04-21T06:23:40;9.00;1.00
14277;DHT22;7222;57.346;12.150;2023-04-21T06:26:07;9.20;1.00
14277;DHT22;7222;57.346;12.150;2023-04-21T06:28:35;9.30;1.00
14277;DHT22;7222;57.346;12.150;2023-04-21T06:31:03;9.50;1.00
14277;DHT22;7222;57.346;12.150;2023-04-21T06:33:32;9.70;1.00
14277;DHT22;7222;57.346;12.150;2023-04-21T06:35:59;9.80;1.00
14277;DHT22;7222;57.346;12.150;2023-04-21T06:38:26;10.10;1.00
14277;DHT22;7222;57.346;12.150;2023-04-21T06:40:53;10.20;1.00
14277;DHT22;7222;57.346;12.150;2023-04-21T06:43:21;10.30;1.00
14277;DHT22;7222;57.346;12.150;2023-04-21T06:45:47;10.40;1.00
14277;DHT22;7222;57.346;12.150;2023-04-21T06:48:14;10.70;1.00
14277;DHT22;7222;57.346;12.150;2023-04-21T06:50:43;10.80;1.00
14277;DHT22;7222;57.346;12.150;2023-04-21T06:53:11;11.00;1.00
14277;DHT22;7222;57.346;12.150;2023-04-21T06:55:38;11.20;1.00
14277;DHT22;7222;57.346;12.150;2023-04-21T06:58:05;11.20;1.00
14277;DHT22;7222;57.346;12.150;2023-04-21T07:00:32;11.40;1.00
14277;DHT22;7222;57.346;12.150;2023-04-21T07:02:58;11.50;1.00
14277;DHT22;7222;57.346;12.150;2023-04-21T07:05:25;11.60;1.00
14277;DHT22;7222;57.346;12.150;2023-04-21T07:07:54;11.60;1.00
14277;DHT22;7222;57.346;12.150;2023-04-21T07:10:24;11.80;1.00
14277;DHT22;7222;57.346;12.150;2023-04-21T07:12:51;12.20;1.00
14277;DHT22;7222;57.346;12.150;2023-04-21T07:15:18;12.40;1.00
14277;DHT22;7222;57.346;12.150;2023-04-21T07:17:45;12.60;1.00
14277;DHT22;7222;57.346;12.150;2023-04-21T07:20:12;12.90;1.00
14277;DHT22;7222;57.346;12.150;2023-04-21T07:22:39;13.30;99.90
14277;DHT22;7222;57.346;12.150;2023-04-21T07:25:08;13.30;99.90
14277;DHT22;7222;57.346;12.150;2023-04-21T07:27:36;13.40;99.90
14277;DHT22;7222;57.346;12.150;2023-04-21T07:30:03;13.80;99.90
14277;DHT22;7222;57.346;12.150;2023-04-21T07:32:30;14.10;99.90
14277;DHT22;7222;57.346;12.150;2023-04-21T07:34:58;14.80;99.90
14277;DHT22;7222;57.346;12.150;2023-04-21T07:37:26;14.70;99.90
14277;DHT22;7222;57.346;12.150;2023-04-21T07:39:53;15.00;99.90
14277;DHT22;7222;57.346;12.150;2023-04-21T07:42:21;15.30;99.90
14277;DHT22;7222;57.346;12.150;2023-04-21T07:44:49;15.70;99.90
14277;DHT22;7222;57.346;12.150;2023-04-21T07:47:16;16.10;99.90
14277;DHT22;7222;57.346;12.150;2023-04-21T07:49:42;15.60;99.90
14277;DHT22;7222;57.346;12.150;2023-04-21T07:52:10;15.20;99.90
14277;DHT22;7222;57.346;12.150;2023-04-21T07:54:37;15.90;99.90
14277;DHT22;7222;57.346;12.150;2023-04-21T07:57:04;16.60;99.90
14277;DHT22;7222;57.346;12.150;2023-04-21T07:59:34;17.20;99.90
14277;DHT22;7222;57.346;12.150;2023-04-21T08:02:01;17.70;99.90
14277;DHT22;7222;57.346;12.150;2023-04-21T08:04:28;17.20;99.90
14277;DHT22;7222;57.346;12.150;2023-04-21T08:06:56;17.90;99.90
14277;DHT22;7222;57.346;12.150;2023-04-21T08:09:23;18.40;99.90
14277;DHT22;7222;57.346;12.150;2023-04-21T08:11:50;18.50;99.90
14277;DHT22;7222;57.346;12.150;2023-04-21T08:14:54;18.40;99.90
14277;DHT22;7222;57.346;12.150;2023-04-21T08:17:21;18.90;99.90
14277;DHT22;7222;57.346;12.150;2023-04-21T08:19:48;17.70;99.90
14277;DHT22;7222;57.346;12.150;2023-04-21T08:22:15;19.00;99.90
14277;DHT22;7222;57.346;12.150;2023-04-21T08:24:42;19.70;99.90
14277;DHT22;7222;57.346;12.150;2023-04-21T08:27:10;18.80;99.90
14277;DHT22;7222;57.346;12.150;2023-04-21T08:29:37;18.10;99.90
14277;DHT22;7222;57.346;12.150;2023-04-21T08:32:07;17.90;99.90
14277;DHT22;7222;57.346;12.150;2023-04-21T08:34:34;18.10;99.90
14277;DHT22;7222;57.346;12.150;2023-04-21T08:37:01;17.60;99.90
14277;DHT22;7222;57.346;12.150;2023-04-21T08:39:28;16.80;99.90
14277;DHT22;7222;57.346;12.150;2023-04-21T08:41:58;17.40;99.90
14277;DHT22;7222;57.346;12.150;2023-04-21T08:44:26;17.70;99.90
14277;DHT22;7222;57.346;12.150;2023-04-21T08:46:54;19.00;99.90
14277;DHT22;7222;57.346;12.150;2023-04-21T08:49:23;19.00;99.90
14277;DHT22;7222;57.346;12.150;2023-04-21T08:51:55;19.90;99.90
14277;DHT22;7222;57.346;12.150;2023-04-21T08:54:22;19.20;99.90
14277;DHT22;7222;57.346;12.150;2023-04-21T08:56:49;19.40;99.90
14277;DHT22;7222;57.346;12.150;2023-04-21T08:59:16;18.20;99.90
14277;DHT22;7222;57.346;12.150;2023-04-21T09:02:05;17.70;99.90
14277;DHT22;7222;57.346;12.150;2023-04-21T09:04:33;17.20;99.90
14277;DHT22;7222;57.346;12.150;2023-04-21T09:07:00;16.90;99.90
14277;DHT22;7222;57.346;12.150;2023-04-21T09:09:28;18.70;99.90
14277;DHT22;7222;57.346;12.150;2023-04-21T09:11:55;18.60;99.90
14277;DHT22;7222;57.346;12.150;2023-04-21T09:14:30;19.40;99.90
14277;DHT22;7222;57.346;12.150;2023-04-21T09:17:01;19.20;99.90
14277;DHT22;7222;57.346;12.150;2023-04-21T09:19:28;20.50;99.90
14277;DHT22;7222;57.346;12.150;2023-04-21T09:21:56;19.30;99.90
14277;DHT22;7222;57.346;12.150;2023-04-21T09:24:24;20.90;99.90
14277;DHT22;7222;57.346;12.150;2023-04-21T09:26:52;21.10;99.90
14277;DHT22;7222;57.346;12.150;2023-04-21T09:29:21;20.00;99.90
14277;DHT22;7222;57.346;12.150;2023-04-21T09:31:48;20.30;99.90
14277;DHT22;7222;57.346;12.150;2023-04-21T09:34:18;20.70;99.90
14277;DHT22;7222;57.346;12.150;2023-04-21T09:36:45;18.80;99.90
14277;DHT22;7222;57.346;12.150;2023-04-21T09:39:14;21.60;99.90
14277;DHT22;7222;57.346;12.150;2023-04-21T09:41:42;22.70;99.90
14277;DHT22;7222;57.346;12.150;2023-04-21T09:44:10;21.10;99.90
14277;DHT22;7222;57.346;12.150;2023-04-21T09:46:37;20.40;99.90
14277;DHT22;7222;57.346;12.150;2023-04-21T09:49:08;21.50;99.90
14277;DHT22;7222;57.346;12.150;2023-04-21T09:51:38;21.10;99.90
14277;DHT22;7222;57.346;12.150;2023-04-21T09:54:13;20.70;99.90
14277;DHT22;7222;57.346;12.150;2023-04-21T09:56:42;19.60;99.90
14277;DHT22;7222;57.346;12.150;2023-04-21T09:59:14;20.70;99.90
14277;DHT22;7222;57.346;12.150;2023-04-21T10:01:43;19.40;99.90
14277;DHT22;7222;57.346;12.150;2023-04-21T10:04:12;18.90;99.90
14277;DHT22;7222;57.346;12.150;2023-04-21T10:06:40;18.90;99.90
14277;DHT22;7222;57.346;12.150;2023-04-21T10:09:08;19.10;99.90
14277;DHT22;7222;57.346;12.150;2023-04-21T10:11:36;18.80;99.90
14277;DHT22;7222;57.346;12.150;2023-04-21T10:14:05;18.50;99.90
14277;DHT22;7222;57.346;12.150;2023-04-21T10:16:35;18.20;99.90
14277;DHT22;7222;57.346;12.150;2023-04-21T10:19:22;18.00;99.90
14277;DHT22;7222;57.346;12.150;2023-04-21T10:21:50;17.50;99.90
14277;DHT22;7222;57.346;12.150;2023-04-21T10:24:17;17.00;99.90
14277;DHT22;7222;57.346;12.150;2023-04-21T10:26:44;17.10;99.90
14277;DHT22;7222;57.346;12.150;2023-04-21T10:29:12;17.10;99.90
14277;DHT22;7222;57.346;12.150;2023-04-21T10:31:50;17.80;99.90
14277;DHT22;7222;57.346;12.150;2023-04-21T10:34:20;18.40;99.90
14277;DHT22;7222;57.346;12.150;2023-04-21T10:37:08;18.30;99.90
14277;DHT22;7222;57.346;12.150;2023-04-21T10:39:50;18.60;99.90
14277;DHT22;7222;57.346;12.150;2023-04-21T10:42:25;19.90;99.90
14277;DHT22;7222;57.346;12.150;2023-04-21T10:45:04;19.10;99.90
14277;DHT22;7222;57.346;12.150;2023-04-21T10:47:35;19.10;99.90
14277;DHT22;7222;57.346;12.150;2023-04-21T10:50:14;19.20;99.90
14277;DHT22;7222;57.346;12.150;2023-04-21T10:53:06;19.40;99.90
14277;DHT22;7222;57.346;12.150;2023-04-21T10:55:34;18.90;99.90
14277;DHT22;7222;57.346;12.150;2023-04-21T10:58:02;19.30;99.90
14277;DHT22;7222;57.346;12.150;2023-04-21T11:00:31;18.50;99.90
14277;DHT22;7222;57.346;12.150;2023-04-21T11:02:59;18.20;99.90
14277;DHT22;7222;57.346;12.150;2023-04-21T11:05:28;19.00;99.90
14277;DHT22;7222;57.346;12.150;2023-04-21T11:08:03;19.70;99.90
14277;DHT22;7222;57.346;12.150;2023-04-21T11:10:45;21.10;99.90
14277;DHT22;7222;57.346;12.150;2023-04-21T11:13:12;20.20;99.90
14277;DHT22;7222;57.346;12.150;2023-04-21T11:15:41;19.70;99.90
14277;DHT22;7222;57.346;12.150;2023-04-21T11:18:07;20.00;99.90
14277;DHT22;7222;57.346;12.150;2023-04-21T11:20:39;23.10;99.90
14277;DHT22;7222;57.346;12.150;2023-04-21T11:23:06;20.40;99.90
14277;DHT22;7222;57.346;12.150;2023-04-21T11:25:33;19.30;99.90
14277;DHT22;7222;57.346;12.150;2023-04-21T11:28:00;21.50;99.90
14277;DHT22;7222;57.346;12.150;2023-04-21T11:30:32;24.00;99.90
14277;DHT22;7222;57.346;12.150;2023-04-21T11:33:01;24.10;99.90
14277;DHT22;7222;57.346;12.150;2023-04-21T11:35:28;25.80;99.90
14277;DHT22;7222;57.346;12.150;2023-04-21T11:37:56;19.40;99.90
14277;DHT22;7222;57.346;12.150;2023-04-21T11:40:23;21.00;99.90
14277;DHT22;7222;57.346;12.150;2023-04-21T11:42:50;22.90;99.90
14277;DHT22;7222;57.346;12.150;2023-04-21T11:45:18;21.20;99.90
14277;DHT22;7222;57.346;12.150;2023-04-21T11:47:46;23.50;99.90
14277;DHT22;7222;57.346;12.150;2023-04-21T11:50:29;24.80;99.90
14277;DHT22;7222;57.346;12.150;2023-04-21T11:52:58;25.70;99.90
14277;DHT22;7222;57.346;12.150;2023-04-21T11:55:28;25.10;99.90
14277;DHT22;7222;57.346;12.150;2023-04-21T11:57:56;23.80;99.90
14277;DHT22;7222;57.346;12.150;2023-04-21T12:00:23;23.00;99.90
14277;DHT22;7222;57.346;12.150;2023-04-21T12:02:54;22.00;99.90
14277;DHT22;7222;57.346;12.150;2023-04-21T12:05:22;20.40;99.90
14277;DHT22;7222;57.346;12.150;2023-04-21T12:07:49;19.90;99.90
14277;DHT22;7222;57.346;12.150;2023-04-21T12:10:19;19.50;99.90
14277;DHT22;7222;57.346;12.150;2023-04-21T12:12:46;19.50;99.90
14277;DHT22;7222;57.346;12.150;2023-04-21T12:15:17;19.60;99.90
14277;DHT22;7222;57.346;12.150;2023-04-21T12:17:47;21.20;99.90
14277;DHT22;7222;57.346;12.150;2023-04-21T12:20:15;20.80;99.90
14277;DHT22;7222;57.346;12.150;2023-04-21T12:22:44;22.00;99.90
14277;DHT22;7222;57.346;12.150;2023-04-21T12:35:47;20.90;99.90
14277;DHT22;7222;57.346;12.150;2023-04-21T12:38:14;20.70;99.90
14277;DHT22;7222;57.346;12.150;2023-04-21T12:40:41;23.10;99.90
14277;DHT22;7222;57.346;12.150;2023-04-21T12:43:07;26.00;99.90
14277;DHT22;7222;57.346;12.150;2023-04-21T12:45:35;25.30;99.90
14277;DHT22;7222;57.346;12.150;2023-04-21T12:48:02;22.80;99.90
14277;DHT22;7222;57.346;12.150;2023-04-21T12:50:29;24.80;99.90
14277;DHT22;7222;57.346;12.150;2023-04-21T12:52:58;26.70;99.90
14277;DHT22;7222;57.346;12.150;2023-04-21T12:55:25;26.60;99.90
14277;DHT22;7222;57.346;12.150;2023-04-21T12:57:52;26.30;99.90
14277;DHT22;7222;57.346;12.150;2023-04-21T13:00:19;25.50;99.90
14277;DHT22;7222;57.346;12.150;2023-04-21T13:02:46;25.90;99.90
14277;DHT22;7222;57.346;12.150;2023-04-21T13:05:13;23.10;99.90
14277;DHT22;7222;57.346;12.150;2023-04-21T13:07:41;24.40;99.90
14277;DHT22;7222;57.346;12.150;2023-04-21T13:10:10;24.90;99.90
14277;DHT22;7222;57.346;12.150;2023-04-21T13:12:36;25.20;99.90
14277;DHT22;7222;57.346;12.150;2023-04-21T13:15:04;24.40;99.90
14277;DHT22;7222;57.346;12.150;2023-04-21T13:17:32;24.10;99.90
14277;DHT22;7222;57.346;12.150;2023-04-21T13:19:59;24.40;99.90
14277;DHT22;7222;57.346;12.150;2023-04-21T13:22:26;24.50;99.90
14277;DHT22;7222;57.346;12.150;2023-04-21T13:24:53;25.10;99.90
14277;DHT22;7222;57.346;12.150;2023-04-21T13:27:21;25.30;99.90
14277;DHT22;7222;57.346;12.150;2023-04-21T13:29:48;24.90;99.90
14277;DHT22;7222;57.346;12.150;2023-04-21T13:32:15;25.20;99.90
14277;DHT22;7222;57.346;12.150;2023-04-21T13:34:42;25.40;99.90
14277;DHT22;7222;57.346;12.150;2023-04-21T13:37:09;25.50;99.90
14277;DHT22;7222;57.346;12.150;2023-04-21T13:39:40;26.30;99.90
14277;DHT22;7222;57.346;12.150;2023-04-21T13:42:07;26.60;99.90
14277;DHT22;7222;57.346;12.150;2023-04-21T13:44:36;26.20;99.90
14277;DHT22;7222;57.346;12.150;2023-04-21T13:47:03;25.60;99.90
14277;DHT22;7222;57.346;12.150;2023-04-21T13:49:30;26.50;99.90
14277;DHT22;7222;57.346;12.150;2023-04-21T13:51:57;27.70;99.90
14277;DHT22;7222;57.346;12.150;2023-04-21T13:54:24;28.20;99.90
14277;DHT22;7222;57.346;12.150;2023-04-21T13:56:51;28.60;99.90
14277;DHT22;7222;57.346;12.150;2023-04-21T13:59:18;26.10;99.90
14277;DHT22;7222;57.346;12.150;2023-04-21T14:01:46;25.40;99.90
14277;DHT22;7222;57.346;12.150;2023-04-21T14:04:13;26.10;99.90
14277;DHT22;7222;57.346;12.150;2023-04-21T14:06:40;25.00;99.90
14277;DHT22;7222;57.346;12.150;2023-04-21T14:09:07;24.60;99.90
14277;DHT22;7222;57.346;12.150;2023-04-21T14:11:35;25.00;99.90
14277;DHT22;7222;57.346;12.150;2023-04-21T14:14:02;26.90;99.90
14277;DHT22;7222;57.346;12.150;2023-04-21T14:16:29;28.00;99.90
14277;DHT22;7222;57.346;12.150;2023-04-21T14:18:57;27.70;99.90
14277;DHT22;7222;57.346;12.150;2023-04-21T14:21:24;26.60;99.90
14277;DHT22;7222;57.346;12.150;2023-04-21T14:23:51;25.70;99.90
14277;DHT22;7222;57.346;12.150;2023-04-21T14:26:19;26.40;99.90
14277;DHT22;7222;57.346;12.150;2023-04-21T14:28:46;24.40;99.90
14277;DHT22;7222;57.346;12.150;2023-04-21T14:31:12;23.80;99.90
14277;DHT22;7222;57.346;12.150;2023-04-21T14:33:39;23.90;99.90
14277;DHT22;7222;57.346;12.150;2023-04-21T14:36:08;24.40;99.90
14277;DHT22;7222;57.346;12.150;2023-04-21T14:38:35;22.80;99.90
14277;DHT22;7222;57.346;12.150;2023-04-21T14:41:02;25.20;99.90
14277;DHT22;7222;57.346;12.150;2023-04-21T14:43:30;24.30;99.90
14277;DHT22;7222;57.346;12.150;2023-04-21T14:45:57;24.30;99.90
14277;DHT22;7222;57.346;12.150;2023-04-21T14:48:24;24.10;99.90
14277;DHT22;7222;57.346;12.150;2023-04-21T14:50:51;24.80;99.90
14277;DHT22;7222;57.346;12.150;2023-04-21T14:53:19;24.40;99.90
14277;DHT22;7222;57.346;12.150;2023-04-21T14:55:46;24.90;99.90
14277;DHT22;7222;57.346;12.150;2023-04-21T14:58:13;26.10;99.90
14277;DHT22;7222;57.346;12.150;2023-04-21T15:00:40;25.20;99.90
14277;DHT22;7222;57.346;12.150;2023-04-21T15:03:07;22.90;99.90
14277;DHT22;7222;57.346;12.150;2023-04-21T15:05:35;23.80;99.90
14277;DHT22;7222;57.346;12.150;2023-04-21T15:08:02;23.40;99.90
14277;DHT22;7222;57.346;12.150;2023-04-21T15:10:31;24.90;99.90
14277;DHT22;7222;57.346;12.150;2023-04-21T15:12:57;23.50;99.90
14277;DHT22;7222;57.346;12.150;2023-04-21T15:15:25;24.90;99.90
14277;DHT22;7222;57.346;12.150;2023-04-21T15:17:52;25.50;99.90
14277;DHT22;7222;57.346;12.150;2023-04-21T15:20:19;26.20;99.90
14277;DHT22;7222;57.346;12.150;2023-04-21T15:22:46;24.20;99.90
14277;DHT22;7222;57.346;12.150;2023-04-21T15:25:13;22.30;99.90
14277;DHT22;7222;57.346;12.150;2023-04-21T15:27:41;22.70;99.90
14277;DHT22;7222;57.346;12.150;2023-04-21T15:30:09;23.90;99.90
14277;DHT22;7222;57.346;12.150;2023-04-21T15:32:36;25.60;99.90
14277;DHT22;7222;57.346;12.150;2023-04-21T15:35:04;25.60;99.90
14277;DHT22;7222;57.346;12.150;2023-04-21T15:37:31;25.10;99.90
14277;DHT22;7222;57.346;12.150;2023-04-21T15:39:58;24.30;99.90
14277;DHT22;7222;57.346;12.150;2023-04-21T15:42:25;25.30;99.90
14277;DHT22;7222;57.346;12.150;2023-04-21T15:44:54;23.90;99.90
14277;DHT22;7222;57.346;12.150;2023-04-21T15:47:22;24.00;99.90
14277;DHT22;7222;57.346;12.150;2023-04-21T15:49:49;24.60;99.90
14277;DHT22;7222;57.346;12.150;2023-04-21T15:52:16;25.30;99.90
14277;DHT22;7222;57.346;12.150;2023-04-21T15:54:45;23.90;99.90
14277;DHT22;7222;57.346;12.150;2023-04-21T15:57:13;23.10;99.90
14277;DHT22;7222;57.346;12.150;2023-04-21T15:59:40;23.60;99.90